Time;durP1;ratioP1;P1;durP2;ratioP2;P2;SDS_P1;SDS_P2;PMS_P1;PMS_P2;Temp;Humidity;BMP_temperature;BMP_pressure;BME280_temperature;BME280_humidity;BME280_pressure;Samples;Min_cycle;Max_cycle;Signal;HPM_P1;HPM_P2
2022/05/12 00:01:58;;;;;;;6.80;4.70;;;19.60;52.40;;;;;;5113906;28;20492;-77
2022/05/12 00:04:27;;;;;;;7.72;5.05;;;19.60;52.50;;;;;;5113920;28;20033;-77
2022/05/12 00:06:53;;;;;;;8.40;5.05;;;19.60;52.60;;;;;;5113859;28;20034;-77
2022/05/12 00:09:19;;;;;;;6.57;4.82;;;19.60;52.50;;;;;;5095563;28;20027;-77
2022/05/12 00:11:45;;;;;;;7.63;4.60;;;19.50;52.50;;;;;;5113814;28;20028;-77
2022/05/12 00:14:12;;;;;;;5.32;4.35;;;19.50;52.40;;;;;;5113825;28;20023;-77
2022/05/12 00:16:38;;;;;;;6.40;4.32;;;19.50;52.40;;;;;;5113820;28;20434;-77
2022/05/12 00:19:04;;;;;;;7.10;4.82;;;19.50;52.60;;;;;;5113627;28;20469;-78
2022/05/12 00:21:30;;;;;;;6.00;4.55;;;19.50;52.70;;;;;;5095456;28;20056;-78
2022/05/12 00:23:58;;;;;;;6.63;4.70;;;19.40;52.60;;;;;;5113672;28;20023;-77
2022/05/12 00:26:26;;;;;;;8.50;5.03;;;19.40;52.70;;;;;;5095382;28;20487;-77
2022/05/12 00:28:53;;;;;;;8.13;4.18;;;19.40;52.80;;;;;;5095341;28;20032;-77
2022/05/12 00:31:19;;;;;;;9.07;4.60;;;19.40;52.70;;;;;;5094467;28;20028;-77
2022/05/12 00:33:46;;;;;;;7.03;4.32;;;19.40;52.80;;;;;;5113630;28;20024;-78
2022/05/12 00:36:12;;;;;;;6.65;4.20;;;19.40;52.90;;;;;;5113541;28;20501;-78
2022/05/12 00:38:37;;;;;;;6.03;4.60;;;19.30;53.30;;;;;;5113369;28;20054;-75
2022/05/12 00:41:03;;;;;;;8.02;4.88;;;19.30;53.50;;;;;;5095010;28;20023;-74
2022/05/12 00:43:51;;;;;;;9.45;4.53;;;19.30;54.10;;;;;;5113418;28;20111;-78
2022/05/12 00:46:23;;;;;;;6.35;4.78;;;19.20;54.00;;;;;;5095187;28;20020;-76
2022/05/12 00:48:50;;;;;;;4.93;4.45;;;19.20;53.80;;;;;;5113336;28;20024;-76
2022/05/12 00:52:26;;;;;;;6.40;4.72;;;19.20;54.00;;;;;;5113412;28;20484;-78
2022/05/12 00:55:07;;;;;;;9.82;4.07;;;19.20;53.80;;;;;;5012173;28;20194;-75
2022/05/12 00:57:47;;;;;;;6.95;4.25;;;19.20;54.00;;;;;;5069573;28;20120;-76
2022/05/12 01:00:15;;;;;;;5.63;3.75;;;19.10;53.90;;;;;;5070425;28;20053;-76
2022/05/12 01:02:44;;;;;;;7.53;5.05;;;19.10;53.80;;;;;;5070336;28;20024;-76
2022/05/12 01:05:11;;;;;;;6.28;4.60;;;19.10;53.90;;;;;;5053546;28;20044;-77
2022/05/12 01:07:37;;;;;;;10.13;5.80;;;19.00;54.20;;;;;;5070401;28;20402;-77
2022/05/12 01:10:05;;;;;;;10.38;6.50;;;19.10;54.40;;;;;;5070344;28;20050;-77
2022/05/12 01:12:31;;;;;;;11.85;5.85;;;19.00;54.20;;;;;;5070243;28;20036;-76
2022/05/12 01:14:58;;;;;;;12.52;6.47;;;19.00;54.40;;;;;;5069771;28;20187;-76
2022/05/12 01:17:24;;;;;;;8.88;5.57;;;19.00;54.80;;;;;;5070084;28;20033;-77
2022/05/12 01:19:51;;;;;;;10.82;5.40;;;19.00;54.50;;;;;;5070258;28;20034;-76
2022/05/12 01:22:48;;;;;;;6.57;4.90;;;18.90;54.70;;;;;;5068863;28;20407;-76
2022/05/12 01:25:18;;;;;;;9.70;5.50;;;18.90;54.70;;;;;;5035397;28;20052;-76
2022/05/12 01:27:43;;;;;;;6.60;4.65;;;18.90;54.90;;;;;;5055082;28;20029;-77
2022/05/12 01:30:13;;;;;;;6.53;5.10;;;18.90;54.60;;;;;;5072471;28;20051;-77
2022/05/12 01:32:39;;;;;;;5.95;4.68;;;18.90;54.80;;;;;;5109545;28;20020;-76
2022/05/12 01:35:06;;;;;;;7.25;4.57;;;18.90;54.80;;;;;;5092012;28;20041;-76
2022/05/12 01:37:36;;;;;;;9.60;5.43;;;18.80;54.90;;;;;;5091961;28;20024;-76
2022/05/12 01:40:04;;;;;;;7.50;4.47;;;18.80;54.70;;;;;;5092064;28;20473;-75
2022/05/12 01:42:29;;;;;;;7.03;4.65;;;18.70;54.70;;;;;;5093230;28;20402;-76
2022/05/12 01:44:55;;;;;;;6.00;4.57;;;18.70;54.70;;;;;;5113847;27;20011;-76
2022/05/12 01:47:21;;;;;;;6.30;4.72;;;18.70;54.80;;;;;;5103750;27;20020;-75
2022/05/12 01:49:48;;;;;;;8.02;5.18;;;18.70;54.90;;;;;;5078216;28;20048;-75
2022/05/12 01:52:14;;;;;;;7.68;4.85;;;18.60;54.80;;;;;;5095742;28;20069;-77
2022/05/12 01:54:40;;;;;;;8.95;5.18;;;18.60;55.10;;;;;;5095625;28;20028;-77
2022/05/12 01:57:06;;;;;;;6.85;5.32;;;18.60;55.00;;;;;;5077549;28;20091;-77
2022/05/12 01:59:32;;;;;;;8.43;6.13;;;18.60;55.20;;;;;;5073887;28;20068;-77
2022/05/12 02:01:58;;;;;;;6.35;5.13;;;18.60;55.20;;;;;;5075381;28;20016;-77
2022/05/12 02:04:23;;;;;;;7.43;5.25;;;18.50;55.20;;;;;;5075320;28;20017;-77
2022/05/12 02:06:49;;;;;;;9.25;5.40;;;18.50;55.30;;;;;;5075840;28;20092;-77
2022/05/12 02:09:16;;;;;;;8.40;5.97;;;18.50;55.40;;;;;;5075462;28;20032;-77
2022/05/12 02:11:42;;;;;;;12.85;6.00;;;18.50;55.60;;;;;;5075751;28;20516;-77
2022/05/12 02:14:09;;;;;;;6.85;4.95;;;18.50;55.60;;;;;;5075270;28;20029;-77
2022/05/12 02:16:35;;;;;;;8.82;4.82;;;18.40;55.60;;;;;;5075082;28;20020;-77
2022/05/12 02:19:05;;;;;;;12.27;5.03;;;18.40;55.60;;;;;;5073797;28;20035;-77
2022/05/12 02:21:31;;;;;;;6.90;5.13;;;18.40;56.20;;;;;;5093889;28;20498;-76
2022/05/12 02:23:57;;;;;;;6.15;4.97;;;18.40;56.50;;;;;;5087113;28;20029;-77
2022/05/12 02:26:24;;;;;;;7.22;5.78;;;18.40;56.40;;;;;;5074887;28;20031;-77
2022/05/12 02:28:50;;;;;;;7.82;5.00;;;18.30;56.30;;;;;;5074928;28;20028;-76
2022/05/12 02:31:15;;;;;;;8.23;5.25;;;18.30;56.40;;;;;;5074842;28;20029;-77
2022/05/12 02:33:41;;;;;;;7.90;5.03;;;18.30;56.40;;;;;;5074777;28;20029;-77
2022/05/12 02:36:07;;;;;;;8.80;4.90;;;18.30;56.30;;;;;;5074790;28;20104;-77
2022/05/12 02:38:33;;;;;;;8.00;4.88;;;18.30;56.60;;;;;;5074589;28;20359;-77
2022/05/12 02:40:59;;;;;;;9.70;5.00;;;18.30;56.50;;;;;;5081135;28;20524;-76
2022/05/12 02:43:24;;;;;;;6.78;5.15;;;18.30;56.60;;;;;;5093524;28;20020;-77
2022/05/12 02:46:02;;;;;;;7.68;5.45;;;18.30;56.70;;;;;;5094619;28;20020;-76
2022/05/12 02:48:33;;;;;;;6.95;4.30;;;18.20;56.70;;;;;;5094838;28;20020;-77
2022/05/12 02:50:59;;;;;;;5.22;4.38;;;18.20;56.70;;;;;;5092631;28;20271;-77
2022/05/12 02:53:26;;;;;;;10.68;5.50;;;18.20;56.60;;;;;;5093387;28;20512;-77
2022/05/12 02:55:53;;;;;;;7.22;5.25;;;18.20;56.80;;;;;;5088727;28;20025;-77
2022/05/12 02:58:19;;;;;;;7.03;5.28;;;18.20;56.80;;;;;;5078543;28;20524;-77
2022/05/12 03:00:46;;;;;;;8.63;5.03;;;18.20;57.00;;;;;;5094618;28;20028;-77
2022/05/12 03:03:12;;;;;;;5.63;4.88;;;18.20;56.90;;;;;;5094530;28;20077;-77
2022/05/12 03:05:40;;;;;;;8.23;5.20;;;18.20;57.10;;;;;;5094458;28;20473;-77
2022/05/12 03:08:07;;;;;;;5.57;4.75;;;18.10;57.00;;;;;;5094367;28;20494;-77
2022/05/12 03:10:34;;;;;;;6.95;5.45;;;18.10;57.00;;;;;;5076202;28;20024;-77
2022/05/12 03:12:59;;;;;;;6.68;4.68;;;18.10;57.10;;;;;;5094389;28;20035;-77
2022/05/12 03:15:25;;;;;;;7.40;5.32;;;18.10;57.10;;;;;;5094817;28;20411;-77
2022/05/12 03:17:51;;;;;;;6.70;4.90;;;18.10;57.20;;;;;;5075942;28;20054;-77
2022/05/12 03:20:19;;;;;;;6.30;4.97;;;18.10;57.70;;;;;;5094242;28;20027;-77
2022/05/12 03:22:45;;;;;;;7.13;5.43;;;18.10;57.70;;;;;;5114134;28;20020;-77
2022/05/12 03:25:13;;;;;;;9.73;5.80;;;18.10;57.70;;;;;;5114430;28;20031;-77
2022/05/12 03:27:40;;;;;;;6.80;4.43;;;18.00;57.90;;;;;;5096263;28;20035;-77
2022/05/12 03:30:10;;;;;;;5.47;4.50;;;18.00;57.70;;;;;;5096065;28;20111;-77
2022/05/12 03:32:35;;;;;;;7.22;4.72;;;18.00;57.90;;;;;;5095364;28;20027;-77
2022/05/12 03:35:02;;;;;;;6.78;5.32;;;18.00;57.80;;;;;;5114304;28;20020;-77
2022/05/12 03:37:28;;;;;;;6.53;4.72;;;18.10;58.20;;;;;;5114108;28;20024;-77
2022/05/12 03:39:54;;;;;;;6.38;4.85;;;18.10;58.10;;;;;;5114200;28;20070;-77
2022/05/12 03:42:19;;;;;;;6.78;4.53;;;18.10;58.30;;;;;;5113950;28;20422;-77
2022/05/12 03:44:56;;;;;;;8.15;5.90;;;18.10;58.10;;;;;;5114082;28;20492;-77
2022/05/12 03:47:26;;;;;;;9.70;5.00;;;18.10;58.10;;;;;;5114099;28;20016;-77
2022/05/12 03:49:54;;;;;;;5.47;4.55;;;18.10;58.10;;;;;;5113045;28;20552;-77
2022/05/12 03:52:21;;;;;;;8.57;4.97;;;18.20;58.10;;;;;;5113872;28;20034;-77
2022/05/12 03:54:48;;;;;;;7.38;5.65;;;18.10;58.30;;;;;;5111737;28;20076;-77
2022/05/12 03:57:15;;;;;;;8.60;5.32;;;18.20;58.50;;;;;;5104557;28;20034;-77
2022/05/12 03:59:41;;;;;;;10.23;5.78;;;18.20;58.40;;;;;;5092550;28;20493;-77
2022/05/12 04:02:13;;;;;;;9.40;5.47;;;18.30;58.60;;;;;;5092985;28;20056;-77
2022/05/12 04:04:42;;;;;;;7.22;5.80;;;18.30;58.70;;;;;;5092445;28;20027;-77
2022/05/12 04:07:13;;;;;;;8.40;5.22;;;18.40;58.60;;;;;;5109313;28;20420;-77
2022/05/12 04:09:39;;;;;;;6.93;4.88;;;18.40;58.70;;;;;;5107898;28;20023;-78
2022/05/12 04:12:09;;;;;;;9.00;5.07;;;18.40;58.50;;;;;;5108638;28;20465;-77
2022/05/12 04:14:39;;;;;;;9.88;5.65;;;18.40;58.40;;;;;;5113474;28;20026;-77
2022/05/12 04:17:10;;;;;;;9.38;5.18;;;18.40;58.50;;;;;;5113863;28;20023;-77
2022/05/12 04:19:37;;;;;;;6.50;4.70;;;18.40;58.40;;;;;;5095232;28;20028;-77
2022/05/12 04:22:06;;;;;;;7.13;4.95;;;18.50;58.30;;;;;;5091853;28;20017;-77
2022/05/12 04:24:32;;;;;;;8.88;4.97;;;18.50;58.30;;;;;;5093636;28;20448;-77
2022/05/12 04:26:58;;;;;;;7.72;4.82;;;18.50;58.10;;;;;;5093097;28;20020;-77
2022/05/12 04:29:24;;;;;;;13.82;5.30;;;18.60;58.20;;;;;;5092884;28;20036;-77
2022/05/12 04:31:50;;;;;;;6.03;4.95;;;18.50;58.00;;;;;;5092999;28;20035;-77
2022/05/12 04:37:00;;;;;;;;;;;18.60;58.00;;;;;;5113885;28;20034;-77
2022/05/12 04:39:26;;;;;;;10.50;5.43;;;18.60;57.60;;;;;;5111360;28;19907;-77
2022/05/12 04:41:52;;;;;;;6.78;4.95;;;18.60;57.90;;;;;;5100857;28;20015;-77
2022/05/12 04:44:19;;;;;;;7.13;5.05;;;18.60;57.90;;;;;;5111392;28;20030;-77
2022/05/12 04:46:45;;;;;;;13.00;5.30;;;18.60;58.00;;;;;;5092848;28;20121;-77
2022/05/12 04:49:13;;;;;;;8.65;4.53;;;18.60;58.10;;;;;;5092889;28;20023;-77
2022/05/12 04:51:40;;;;;;;7.75;5.20;;;18.70;58.10;;;;;;5093145;28;20043;-77
2022/05/12 04:54:09;;;;;;;6.88;5.13;;;18.70;58.10;;;;;;5092812;28;20107;-77
2022/05/12 04:56:39;;;;;;;8.27;4.75;;;18.70;58.20;;;;;;5094571;28;20020;-77
2022/05/12 04:59:07;;;;;;;9.77;4.80;;;18.80;58.30;;;;;;5112859;28;20074;-76
2022/05/12 05:01:33;;;;;;;6.63;4.82;;;18.80;58.20;;;;;;5113140;28;20019;-77
2022/05/12 05:04:00;;;;;;;6.80;4.53;;;18.90;58.30;;;;;;5112988;28;20104;-77
2022/05/12 05:06:27;;;;;;;7.90;5.07;;;18.90;58.30;;;;;;5113080;28;20043;-77
2022/05/12 05:08:53;;;;;;;9.38;5.90;;;19.00;58.40;;;;;;5113028;28;20502;-77
2022/05/12 05:11:19;;;;;;;7.78;5.00;;;19.10;58.50;;;;;;5093242;28;20112;-77
2022/05/12 05:13:46;;;;;;;6.65;5.10;;;19.20;58.60;;;;;;5093157;28;20058;-77
2022/05/12 05:16:11;;;;;;;8.65;5.60;;;19.30;58.40;;;;;;5092584;28;20103;-77
2022/05/12 05:18:38;;;;;;;10.00;5.85;;;19.40;58.30;;;;;;5095232;28;20024;-77
2022/05/12 05:21:04;;;;;;;12.77;5.72;;;19.50;58.20;;;;;;5080165;28;20066;-77
2022/05/12 05:23:30;;;;;;;12.07;5.95;;;19.60;57.90;;;;;;5095943;28;20028;-77
2022/05/12 05:25:56;;;;;;;8.10;5.35;;;19.70;57.60;;;;;;5096046;28;20031;-77
2022/05/12 05:28:22;;;;;;;11.48;5.03;;;19.90;57.30;;;;;;5096146;28;20035;-77
2022/05/12 05:30:50;;;;;;;9.45;5.05;;;20.00;57.20;;;;;;5096802;28;20024;-77
2022/05/12 05:33:16;;;;;;;7.15;4.68;;;20.10;57.00;;;;;;5096163;28;20103;-77
2022/05/12 05:35:43;;;;;;;9.57;5.78;;;20.20;56.80;;;;;;5096156;28;20048;-77
2022/05/12 05:38:09;;;;;;;9.02;5.10;;;20.30;56.60;;;;;;5077705;28;20107;-77
2022/05/12 05:40:35;;;;;;;11.40;5.28;;;20.40;56.40;;;;;;5100813;28;20114;-77
2022/05/12 05:43:00;;;;;;;10.30;6.93;;;20.50;56.20;;;;;;5095669;28;20020;-77
2022/05/12 05:45:27;;;;;;;11.05;5.80;;;20.60;55.90;;;;;;5095639;28;20020;-77
2022/05/12 05:47:56;;;;;;;10.38;4.70;;;20.70;55.60;;;;;;5078209;28;20072;-77
2022/05/12 05:50:27;;;;;;;13.10;4.93;;;20.70;55.20;;;;;;5077722;28;20031;-77
2022/05/12 05:55:37;;;;;;;;;;;20.90;55.00;;;;;;5100011;28;20549;-77
2022/05/12 05:58:05;;;;;;;12.50;6.65;;;21.00;55.10;;;;;;5115500;28;19911;-77
2022/05/12 06:00:32;;;;;;;9.82;4.85;;;21.10;54.50;;;;;;5097762;28;20039;-77
2022/05/12 06:02:58;;;;;;;9.82;5.55;;;21.10;54.30;;;;;;5116212;28;20043;-78
2022/05/12 06:05:24;;;;;;;9.43;5.10;;;21.10;54.40;;;;;;5096826;28;20508;-77
2022/05/12 06:07:52;;;;;;;11.10;5.07;;;21.10;54.20;;;;;;5115878;28;20024;-77
2022/05/12 06:10:17;;;;;;;6.75;4.50;;;21.20;54.40;;;;;;5115897;28;20137;-77
2022/05/12 06:12:44;;;;;;;8.90;4.93;;;21.30;54.50;;;;;;5115057;28;20091;-77
2022/05/12 06:15:11;;;;;;;5.07;4.57;;;21.40;54.60;;;;;;5096156;28;20058;-77
2022/05/12 06:17:37;;;;;;;8.10;4.95;;;21.50;54.50;;;;;;5094467;28;20024;-77
2022/05/12 06:20:07;;;;;;;9.15;4.95;;;21.60;54.40;;;;;;5091737;28;20492;-77
2022/05/12 06:22:33;;;;;;;11.55;5.18;;;21.70;54.20;;;;;;5112342;28;20031;-77
2022/05/12 06:25:08;;;;;;;7.07;4.80;;;21.90;54.20;;;;;;5116233;28;20027;-77
2022/05/12 06:27:34;;;;;;;7.45;5.22;;;21.90;53.70;;;;;;5115425;28;20054;-77
2022/05/12 06:30:00;;;;;;;11.95;6.32;;;22.10;53.40;;;;;;5096008;28;20059;-77
2022/05/12 06:32:26;;;;;;;9.18;5.70;;;22.20;53.10;;;;;;5097231;28;20019;-78
2022/05/12 06:34:55;;;;;;;9.73;4.53;;;22.20;52.40;;;;;;5115431;28;20027;-76
2022/05/12 06:37:21;;;;;;;11.75;5.28;;;22.30;52.30;;;;;;5114592;28;20024;-76
2022/05/12 06:39:47;;;;;;;12.52;4.60;;;22.40;52.00;;;;;;5114429;28;20023;-76
2022/05/12 06:42:13;;;;;;;8.70;5.10;;;22.40;51.90;;;;;;5115518;28;20376;-76
2022/05/12 06:44:41;;;;;;;7.78;5.05;;;22.40;51.90;;;;;;5097448;28;20034;-76
2022/05/12 06:47:08;;;;;;;15.20;6.18;;;22.50;51.40;;;;;;5115394;28;20024;-77
2022/05/12 06:49:35;;;;;;;14.98;5.65;;;22.50;51.30;;;;;;5096920;28;20469;-78
2022/05/12 06:52:02;;;;;;;14.50;5.60;;;22.50;51.30;;;;;;5096863;28;20106;-77
2022/05/12 06:54:28;;;;;;;8.82;5.47;;;22.50;50.80;;;;;;5104445;28;20416;-78
2022/05/12 06:56:54;;;;;;;9.45;5.60;;;22.50;50.70;;;;;;5095070;28;20020;-78
2022/05/12 06:59:19;;;;;;;15.85;5.78;;;22.50;50.60;;;;;;5094391;28;20048;-75
2022/05/12 07:01:45;;;;;;;13.63;5.45;;;22.50;50.90;;;;;;5094452;28;20023;-76
2022/05/12 07:04:11;;;;;;;9.18;5.63;;;22.40;50.90;;;;;;5094615;28;20024;-76
2022/05/12 07:06:36;;;;;;;16.42;6.32;;;22.50;51.10;;;;;;5076306;28;20024;-76
2022/05/12 07:09:02;;;;;;;17.30;5.75;;;22.50;51.00;;;;;;5094518;28;20024;-76
2022/05/12 07:11:28;;;;;;;13.18;6.07;;;22.60;51.00;;;;;;5097998;28;20382;-77
2022/05/12 07:13:54;;;;;;;13.10;6.47;;;22.70;51.00;;;;;;5107192;28;20027;-77
2022/05/12 07:16:20;;;;;;;17.45;6.70;;;22.80;51.00;;;;;;5114543;28;20601;-77
2022/05/12 07:18:46;;;;;;;15.38;7.78;;;22.90;51.00;;;;;;5111218;28;20111;-77
2022/05/12 07:26:42;;;;;;;15.37;7.63;;;23.50;51.10;;;;;;5093893;28;19911;-77
2022/05/12 07:29:14;;;;;;;16.85;7.13;;;23.80;50.00;;;;;;5094676;28;20352;-77
2022/05/12 07:31:41;;;;;;;18.42;7.43;;;24.00;49.90;;;;;;5094083;28;20028;-77
2022/05/12 07:34:08;;;;;;;17.25;8.45;;;24.20;49.60;;;;;;5075690;28;20477;-77
2022/05/12 07:36:38;;;;;;;23.67;9.80;;;24.40;49.10;;;;;;5098081;27;20388;-77
2022/05/12 07:39:05;;;;;;;18.55;8.63;;;24.60;48.50;;;;;;5104183;28;20027;-77
2022/05/12 07:41:32;;;;;;;19.95;8.68;;;24.80;48.30;;;;;;5093313;28;20012;-77
2022/05/12 07:43:58;;;;;;;12.63;7.25;;;25.00;47.70;;;;;;5091437;28;20032;-77
2022/05/12 07:46:28;;;;;;;16.48;8.32;;;25.10;47.60;;;;;;5094145;28;20024;-77
2022/05/12 07:48:55;;;;;;;13.15;7.82;;;25.20;47.40;;;;;;5093787;28;20073;-77
2022/05/12 07:51:22;;;;;;;17.23;8.27;;;25.30;47.00;;;;;;5093642;28;20023;-77
2022/05/12 07:53:49;;;;;;;12.65;8.02;;;25.40;46.40;;;;;;5093688;28;20036;-77
2022/05/12 07:56:16;;;;;;;13.77;7.40;;;25.50;46.40;;;;;;5075403;28;20024;-77
2022/05/12 07:58:43;;;;;;;14.50;5.97;;;25.70;46.60;;;;;;5075191;28;20405;-77
2022/05/12 08:01:09;;;;;;;8.80;5.47;;;25.70;45.90;;;;;;5093426;28;20020;-77
2022/05/12 08:03:35;;;;;;;8.48;5.07;;;25.70;45.50;;;;;;5094030;28;20039;-77
2022/05/12 08:06:02;;;;;;;8.50;5.00;;;25.70;44.50;;;;;;5093538;28;20023;-77
2022/05/12 08:08:28;;;;;;;6.47;4.57;;;25.80;44.70;;;;;;5075394;28;20393;-77
2022/05/12 08:10:54;;;;;;;8.45;4.85;;;25.80;44.40;;;;;;5093445;28;20039;-77
2022/05/12 08:13:21;;;;;;;13.07;5.07;;;25.80;44.60;;;;;;5093445;28;20016;-76
2022/05/12 08:15:50;;;;;;;8.25;4.28;;;25.80;44.30;;;;;;5093373;28;20016;-77
2022/05/12 08:18:21;;;;;;;5.25;4.38;;;25.80;44.20;;;;;;5075038;28;20461;-77
2022/05/12 08:20:49;;;;;;;6.13;4.00;;;25.80;43.90;;;;;;5081921;28;20422;-77
2022/05/12 08:23:15;;;;;;;6.38;4.60;;;25.80;43.90;;;;;;5086692;28;20064;-77
2022/05/12 08:25:42;;;;;;;5.57;3.90;;;25.80;43.70;;;;;;5095948;28;20095;-77
2022/05/12 08:28:09;;;;;;;4.43;3.70;;;25.90;43.50;;;;;;5082336;28;20028;-77
2022/05/12 08:30:34;;;;;;;6.57;3.90;;;25.90;42.90;;;;;;5114772;27;20019;-77
2022/05/12 08:33:00;;;;;;;9.48;4.15;;;25.90;42.40;;;;;;5134240;27;20021;-77
2022/05/12 08:35:27;;;;;;;7.00;4.18;;;26.00;42.10;;;;;;5110798;28;20019;-77
2022/05/12 08:37:54;;;;;;;7.40;4.10;;;26.00;42.20;;;;;;5080277;28;20051;-77
2022/05/12 08:41:12;;;;;;;5.63;3.53;;;26.00;42.30;;;;;;5113184;28;20114;-77
2022/05/12 08:43:43;;;;;;;7.28;4.40;;;26.00;42.00;;;;;;5010951;28;20084;-77
2022/05/12 08:46:14;;;;;;;7.60;4.15;;;26.00;41.80;;;;;;4991707;28;20635;-77
2022/05/12 08:48:43;;;;;;;6.25;3.88;;;26.00;41.40;;;;;;5000454;28;20115;-77
2022/05/12 08:51:15;;;;;;;7.63;4.43;;;26.10;41.70;;;;;;4995511;28;20040;-77
2022/05/12 08:53:56;;;;;;;6.28;4.20;;;26.10;41.30;;;;;;5002456;28;20553;-77
2022/05/12 08:56:24;;;;;;;6.97;4.28;;;26.10;41.40;;;;;;5014740;28;20033;-77
2022/05/12 08:58:54;;;;;;;9.07;4.15;;;26.20;41.40;;;;;;5012335;28;20132;-77
2022/05/12 09:01:20;;;;;;;8.88;4.15;;;26.10;40.90;;;;;;4999807;28;20049;-77
2022/05/12 09:03:51;;;;;;;6.47;3.50;;;26.20;40.80;;;;;;5013096;28;20480;-76
2022/05/12 09:06:26;;;;;;;5.32;4.10;;;26.30;41.40;;;;;;5030628;28;20065;-77
2022/05/12 09:08:54;;;;;;;9.02;4.07;;;26.40;41.50;;;;;;5027351;28;20033;-77
2022/05/12 09:11:59;;;;;;;8.13;3.70;;;26.40;40.80;;;;;;5013761;28;20408;-77
2022/05/12 09:14:39;;;;;;;5.10;3.40;;;26.60;41.60;;;;;;4999672;28;20033;-77
2022/05/12 09:17:08;;;;;;;7.63;3.80;;;26.80;40.80;;;;;;5038052;28;20080;-74
2022/05/12 09:19:33;;;;;;;12.45;3.92;;;27.00;39.50;;;;;;5096668;28;20020;-76
2022/05/12 09:21:59;;;;;;;7.22;3.50;;;27.10;39.40;;;;;;5106089;28;20157;-75
2022/05/12 09:24:25;;;;;;;5.22;3.53;;;27.30;39.70;;;;;;5096516;28;20020;-76
2022/05/12 09:27:18;;;;;;;6.28;3.42;;;27.50;38.60;;;;;;5096608;28;20480;-75
2022/05/12 09:29:49;;;;;;;9.43;3.50;;;27.60;38.30;;;;;;5092397;28;20080;-75
2022/05/12 09:32:23;;;;;;;9.43;2.97;;;27.70;38.50;;;;;;5078178;28;20024;-75
2022/05/12 09:35:12;;;;;;;5.43;4.15;;;27.80;38.10;;;;;;5086026;28;20016;-76
2022/05/12 09:37:41;;;;;;;14.75;3.63;;;27.90;38.40;;;;;;5116854;28;20020;-76
2022/05/12 09:40:29;;;;;;;5.05;3.10;;;27.90;36.40;;;;;;5116638;28;20162;-76
2022/05/12 09:42:56;;;;;;;6.47;3.08;;;28.00;37.00;;;;;;5116668;28;20472;-74
2022/05/12 09:45:27;;;;;;;8.93;3.10;;;28.10;36.30;;;;;;5116606;28;20099;-75
2022/05/12 09:48:19;;;;;;;6.47;3.13;;;28.10;36.40;;;;;;5114485;28;20031;-76
2022/05/12 09:50:47;;;;;;;4.40;2.75;;;28.20;36.20;;;;;;5110275;28;20088;-76
2022/05/12 09:53:22;;;;;;;5.03;2.97;;;28.30;36.20;;;;;;5126226;27;20059;-75
2022/05/12 09:56:03;;;;;;;4.32;2.92;;;28.30;35.10;;;;;;5137014;27;20102;-76
2022/05/12 09:58:33;;;;;;;6.15;3.30;;;28.30;35.30;;;;;;5114791;28;20050;-76
2022/05/12 10:01:24;;;;;;;5.47;3.53;;;28.50;35.00;;;;;;5115090;28;20043;-75
2022/05/12 10:09:52;;;;;;;16.25;3.97;;;28.80;33.90;;;;;;5048713;28;20017;-75
2022/05/12 10:12:30;;;;;;;5.07;3.50;;;28.90;33.70;;;;;;5050899;28;20021;-75
2022/05/12 10:15:04;;;;;;;6.88;3.42;;;29.10;34.20;;;;;;5087432;28;20036;-75
2022/05/12 10:17:44;;;;;;;9.30;3.60;;;29.20;34.20;;;;;;5084793;28;20457;-75
2022/05/12 10:20:12;;;;;;;6.78;3.55;;;29.30;34.20;;;;;;5096128;28;20103;-75
2022/05/12 10:23:02;;;;;;;4.32;3.22;;;29.40;33.80;;;;;;5113881;28;20161;-75
2022/05/12 10:25:56;;;;;;;6.85;3.58;;;29.50;33.40;;;;;;5089666;28;20036;-75
2022/05/12 10:28:50;;;;;;;6.90;3.00;;;29.70;33.40;;;;;;5077323;28;20052;-75
2022/05/12 10:31:21;;;;;;;3.90;3.15;;;29.80;33.50;;;;;;5120739;27;20379;-75
2022/05/12 10:34:06;;;;;;;10.10;3.50;;;29.90;32.80;;;;;;5095288;28;20031;-75
2022/05/12 10:36:59;;;;;;;13.75;3.42;;;30.00;32.90;;;;;;5096936;28;20377;-75
2022/05/12 10:39:25;;;;;;;4.93;3.53;;;30.00;33.00;;;;;;5098298;28;20051;-74
2022/05/12 10:42:01;;;;;;;8.15;3.17;;;30.00;32.90;;;;;;5099479;28;20085;-75
2022/05/12 10:44:36;;;;;;;9.88;3.63;;;29.90;32.70;;;;;;5088732;28;20606;-75
2022/05/12 10:47:14;;;;;;;7.07;3.40;;;29.90;32.90;;;;;;5094924;28;20095;-75
2022/05/12 10:50:01;;;;;;;6.65;3.25;;;29.80;33.00;;;;;;5108890;28;20034;-75
2022/05/12 10:53:00;;;;;;;8.55;3.80;;;29.80;33.20;;;;;;5079330;28;20036;-75
2022/05/12 10:55:30;;;;;;;6.18;3.45;;;29.80;33.40;;;;;;5070300;28;20035;-75
2022/05/12 10:58:29;;;;;;;7.00;3.10;;;29.80;33.20;;;;;;5097367;28;20100;-75
2022/05/12 11:01:13;;;;;;;5.85;3.53;;;29.80;33.30;;;;;;5095006;28;20043;-75
2022/05/12 11:03:59;;;;;;;3.90;3.00;;;29.80;32.50;;;;;;5094695;28;20445;-74
2022/05/12 11:06:30;;;;;;;5.53;3.35;;;29.80;32.80;;;;;;5109613;28;20059;-75
2022/05/12 11:09:14;;;;;;;5.88;3.33;;;29.80;32.90;;;;;;5092146;28;20035;-75
2022/05/12 11:11:49;;;;;;;12.80;3.38;;;29.80;32.80;;;;;;5115001;28;20031;-75
2022/05/12 11:14:37;;;;;;;3.97;2.90;;;29.80;32.70;;;;;;5114630;28;20020;-75
2022/05/12 11:17:09;;;;;;;5.47;3.40;;;29.80;33.10;;;;;;5114877;28;20023;-75
2022/05/12 11:19:36;;;;;;;4.68;3.13;;;29.90;32.80;;;;;;5114685;28;20024;-75
2022/05/12 11:22:05;;;;;;;11.40;3.35;;;29.90;33.60;;;;;;5096474;28;20027;-75
2022/05/12 11:24:31;;;;;;;5.43;3.55;;;29.90;32.90;;;;;;5114725;28;20047;-75
2022/05/12 11:27:24;;;;;;;4.13;3.45;;;29.90;32.30;;;;;;5114705;28;20046;-75
2022/05/12 11:30:18;;;;;;;8.50;3.67;;;29.90;32.60;;;;;;5114682;28;20034;-76
2022/05/12 11:33:18;;;;;;;10.35;3.30;;;30.00;32.90;;;;;;5106653;28;20063;-76
2022/05/12 11:35:48;;;;;;;6.10;3.03;;;29.90;32.50;;;;;;5096238;28;20055;-75
2022/05/12 11:38:43;;;;;;;7.20;3.15;;;30.00;32.40;;;;;;5114325;28;20020;-76
2022/05/12 11:41:20;;;;;;;;;;;30.00;32.40;;;;;;5096512;28;20051;-76
2022/05/12 11:46:51;;;;;;;4.28;2.90;;;30.00;31.70;;;;;;5114381;28;20484;-76
2022/05/12 11:49:32;;;;;;;8.15;3.63;;;30.00;31.80;;;;;;5114230;28;20028;-75
2022/05/12 11:52:10;;;;;;;17.52;3.53;;;30.10;32.00;;;;;;5114244;28;20020;-76
2022/05/12 11:55:03;;;;;;;9.25;3.28;;;30.10;31.70;;;;;;5114221;28;20072;-75
2022/05/12 11:57:35;;;;;;;8.27;3.47;;;30.10;31.50;;;;;;5114183;28;20022;-75
2022/05/12 12:00:08;;;;;;;6.50;2.80;;;30.10;31.00;;;;;;5095687;28;20051;-75
2022/05/12 12:02:35;;;;;;;8.95;2.92;;;30.20;30.90;;;;;;5095473;28;20381;-75
2022/05/12 12:05:03;;;;;;;7.25;2.83;;;30.20;30.70;;;;;;5113911;28;20098;-75
2022/05/12 12:07:32;;;;;;;5.80;2.90;;;30.20;30.80;;;;;;5113684;28;20033;-75
2022/05/12 12:10:28;;;;;;;12.38;3.40;;;30.20;30.80;;;;;;5113701;28;20023;-75
2022/05/12 12:13:15;;;;;;;6.32;2.92;;;30.20;31.00;;;;;;5095456;28;20058;-75
2022/05/12 12:16:04;;;;;;;7.35;3.33;;;30.30;31.10;;;;;;5095409;28;20032;-76
2022/05/12 12:18:30;;;;;;;9.20;3.30;;;30.30;31.00;;;;;;5113507;28;20039;-74
2022/05/12 12:20:58;;;;;;;5.82;2.60;;;30.30;30.10;;;;;;5108615;28;20027;-76
2022/05/12 12:23:33;;;;;;;4.47;2.90;;;30.30;30.80;;;;;;5075071;28;20038;-74
2022/05/12 12:26:01;;;;;;;10.30;3.20;;;30.40;31.00;;;;;;5074952;28;20024;-77
2022/05/12 12:29:18;;;;;;;3.22;2.70;;;30.40;30.50;;;;;;5074911;28;20028;-74
2022/05/12 12:31:50;;;;;;;5.65;2.50;;;30.40;30.80;;;;;;5097130;28;20085;-74
2022/05/12 12:34:24;;;;;;;7.47;2.70;;;30.50;30.30;;;;;;5092919;28;20099;-75
2022/05/12 12:37:16;;;;;;;12.32;3.38;;;30.50;30.70;;;;;;5074959;28;20409;-74
2022/05/12 12:39:46;;;;;;;6.80;3.28;;;30.60;30.40;;;;;;5070923;28;20553;-74
2022/05/12 12:42:23;;;;;;;4.28;3.40;;;30.50;30.00;;;;;;5092756;28;20084;-75
2022/05/12 12:44:52;;;;;;;8.05;2.90;;;30.50;30.50;;;;;;5092944;28;20432;-74
2022/05/12 12:47:26;;;;;;;4.75;3.15;;;30.50;30.10;;;;;;5092758;28;20426;-74
2022/05/12 12:50:04;;;;;;;5.90;2.90;;;30.60;30.00;;;;;;5092992;28;20045;-75
2022/05/12 12:52:30;;;;;;;7.32;3.60;;;30.60;30.10;;;;;;5074633;28;20024;-74
2022/05/12 12:57:48;;;;;;;3.75;2.80;;;30.70;30.20;;;;;;5092967;28;20051;-74
2022/05/12 13:00:32;;;;;;;12.43;2.80;;;30.80;30.50;;;;;;5074404;28;20059;-75
2022/05/12 13:03:19;;;;;;;8.02;2.83;;;31.00;30.30;;;;;;5074409;28;20052;-74
2022/05/12 13:05:47;;;;;;;6.55;3.17;;;31.10;30.60;;;;;;5092702;28;20020;-75
2022/05/12 13:08:27;;;;;;;6.20;3.08;;;31.30;30.00;;;;;;5074616;28;20024;-75
2022/05/12 13:11:00;;;;;;;6.75;3.30;;;31.50;29.80;;;;;;5092795;28;20520;-74
2022/05/12 13:13:27;;;;;;;;;;;31.70;29.40;;;;;;5093046;28;20031;-74
2022/05/12 13:15:59;;;;;;;4.78;2.97;;;31.90;30.10;;;;;;5092682;28;19904;-75
2022/05/12 13:18:31;;;;;;;6.83;2.93;;;32.00;28.60;;;;;;5092658;28;20021;-74
2022/05/12 13:20:59;;;;;;;12.35;3.47;;;32.10;28.70;;;;;;5092659;28;20028;-74
2022/05/12 13:23:31;;;;;;;8.82;3.47;;;32.10;28.40;;;;;;5092597;28;20461;-74
2022/05/12 13:26:02;;;;;;;4.43;2.72;;;32.10;28.50;;;;;;5092704;28;20027;-75
2022/05/12 13:28:30;;;;;;;3.78;2.83;;;32.20;28.40;;;;;;5094320;28;20024;-75